Time;durP1;ratioP1;P1;durP2;ratioP2;P2;SDS_P1;SDS_P2;PMS_P1;PMS_P2;Temp;Humidity;BMP_temperature;BMP_pressure;BME280_temperature;BME280_humidity;BME280_pressure;Samples;Min_cycle;Max_cycle;Signal;HPM_P1;HPM_P2
2021/08/06 00:02:20;;;;;;;1.55;1.45;;;;;;;15.72;100.00;97072.19;5049297;28;20474;-81
2021/08/06 00:04:46;;;;;;;1.48;0.90;;;;;;;15.76;100.00;97104.22;5050523;28;20132;-82
2021/08/06 00:07:12;;;;;;;2.17;1.02;;;;;;;15.72;100.00;97108.84;5049161;28;20025;-83
2021/08/06 00:09:38;;;;;;;3.95;0.80;;;;;;;15.79;100.00;97106.28;5050352;28;20040;-82
2021/08/06 00:12:05;;;;;;;1.17;0.85;;;;;;;15.85;100.00;97106.84;5050167;28;20112;-80
2021/08/06 00:14:32;;;;;;;0.63;0.63;;;;;;;15.74;100.00;97100.22;5049279;28;20025;-81
2021/08/06 00:16:57;;;;;;;3.42;1.20;;;;;;;15.69;100.00;97093.00;5049209;28;20036;-79
2021/08/06 00:19:23;;;;;;;1.25;0.80;;;;;;;15.62;100.00;97097.50;5050451;28;20017;-83
2021/08/06 00:21:48;;;;;;;2.28;0.55;;;;;;;15.69;100.00;97097.72;5048812;28;20028;-80
2021/08/06 00:24:14;;;;;;;1.08;0.98;;;;;;;15.74;100.00;97103.78;5051568;28;20028;-79
2021/08/06 00:26:40;;;;;;;6.70;1.30;;;;;;;15.80;100.00;97110.66;5052915;28;20077;-83
2021/08/06 00:29:06;;;;;;;2.58;0.77;;;;;;;15.58;100.00;97108.41;5053812;28;20481;-79
2021/08/06 00:31:32;;;;;;;4.10;0.77;;;;;;;15.48;100.00;97095.91;5054014;28;20103;-82
2021/08/06 00:33:57;;;;;;;3.03;1.00;;;;;;;15.64;100.00;97098.75;5054169;28;20068;-83
2021/08/06 00:36:23;;;;;;;1.23;0.85;;;;;;;15.68;100.00;97096.91;5052521;28;20060;-79
2021/08/06 00:38:48;;;;;;;5.93;0.93;;;;;;;15.52;100.00;97093.25;5052537;28;20025;-81
2021/08/06 00:41:13;;;;;;;4.25;0.90;;;;;;;15.53;100.00;97097.63;5052485;28;20035;-83
2021/08/06 00:43:39;;;;;;;1.55;1.00;;;;;;;15.39;100.00;97111.75;5053636;28;20057;-80
2021/08/06 00:46:05;;;;;;;7.05;1.48;;;;;;;15.38;100.00;97112.88;5054052;28;20488;-80
2021/08/06 00:48:31;;;;;;;4.15;1.00;;;;;;;15.48;100.00;97103.38;5052273;28;20044;-81
2021/08/06 00:50:59;;;;;;;1.40;1.00;;;;;;;15.57;100.00;97114.28;5053762;28;20021;-81
2021/08/06 00:53:25;;;;;;;1.05;0.98;;;;;;;15.47;100.00;97108.06;5053664;28;20053;-80
2021/08/06 00:55:51;;;;;;;3.70;1.27;;;;;;;15.53;100.00;97097.63;5052213;28;20033;-80
2021/08/06 00:58:17;;;;;;;1.48;1.00;;;;;;;15.37;100.00;97092.00;5052345;28;20032;-81
2021/08/06 01:00:42;;;;;;;2.22;1.63;;;;;;;15.32;100.00;97088.66;5053889;28;20032;-81
2021/08/06 01:03:25;;;;;;;1.88;0.88;;;;;;;15.32;100.00;97094.97;5052288;28;20055;-81
2021/08/06 01:06:10;;;;;;;1.77;1.15;;;;;;;15.24;100.00;97106.13;5053801;28;20028;-83
2021/08/06 01:08:42;;;;;;;1.60;1.27;;;;;;;15.25;100.00;97105.00;5053672;28;20021;-80
2021/08/06 01:11:08;;;;;;;3.08;1.60;;;;;;;15.29;100.00;97106.69;5053586;28;20109;-83
2021/08/06 01:13:47;;;;;;;3.90;1.20;;;;;;;15.36;100.00;97093.16;5053451;28;20446;-81
2021/08/06 01:16:13;;;;;;;2.95;1.27;;;;;;;15.35;100.00;97096.25;5052256;28;20021;-80
2021/08/06 01:18:49;;;;;;;2.75;0.75;;;;;;;15.36;100.00;97111.63;5051670;28;20055;-81
2021/08/06 01:21:18;;;;;;;1.77;0.80;;;;;;;15.25;100.00;97116.03;5051633;28;20032;-79
2021/08/06 01:23:44;;;;;;;2.33;0.95;;;;;;;15.38;100.00;97115.66;5051838;28;20028;-83
2021/08/06 01:26:14;;;;;;;2.28;1.10;;;;;;;15.35;100.00;97119.09;5051769;28;20036;-82
2021/08/06 01:28:43;;;;;;;3.28;1.10;;;;;;;15.27;100.00;97119.22;5051673;28;20440;-81
2021/08/06 01:31:09;;;;;;;0.90;0.90;;;;;;;15.21;100.00;97121.41;5051236;28;20079;-79
2021/08/06 01:33:36;;;;;;;2.17;1.08;;;;;;;15.18;100.00;97129.56;5053229;28;20040;-82
2021/08/06 01:36:01;;;;;;;2.80;1.25;;;;;;;15.16;100.00;97131.88;5050794;28;20025;-81
2021/08/06 01:38:29;;;;;;;1.23;0.50;;;;;;;15.14;100.00;97120.38;5051132;28;20056;-80
2021/08/06 01:41:20;;;;;;;2.17;1.17;;;;;;;15.36;100.00;97134.50;5051664;28;20115;-80
2021/08/06 01:43:51;;;;;;;1.55;0.55;;;;;;;15.41;100.00;97147.25;5051186;28;20033;-80
2021/08/06 01:46:38;;;;;;;1.67;0.93;;;;;;;15.36;100.00;97134.50;5051571;28;20059;-80
2021/08/06 01:49:16;;;;;;;1.45;0.80;;;;;;;15.41;100.00;97147.25;5051309;28;20061;-82
2021/08/06 01:51:44;;;;;;;0.88;0.70;;;;;;;15.39;100.00;97146.78;5052167;28;20052;-81
2021/08/06 01:54:13;;;;;;;1.38;1.00;;;;;;;15.14;100.00;97142.41;5051444;28;20029;-79
2021/08/06 01:56:40;;;;;;;1.00;0.80;;;;;;;15.03;100.00;97148.38;5052555;28;20021;-83
2021/08/06 01:59:07;;;;;;;0.90;0.77;;;;;;;14.93;100.00;97140.59;5051518;28;20389;-82
2021/08/06 02:01:33;;;;;;;4.93;1.20;;;;;;;14.88;100.00;97151.81;5052634;28;20550;-80
2021/08/06 02:03:59;;;;;;;3.97;2.58;;;;;;;14.71;100.00;97146.53;5052299;28;20041;-82
2021/08/06 02:06:24;;;;;;;2.95;1.30;;;;;;;14.67;100.00;97151.09;5052376;28;20038;-82
2021/08/06 02:08:50;;;;;;;2.33;1.27;;;;;;;14.65;100.00;97142.41;5052328;28;20154;-82
2021/08/06 02:11:18;;;;;;;2.72;1.20;;;;;;;14.78;100.00;97134.97;5051135;28;20025;-82
2021/08/06 02:13:43;;;;;;;2.15;1.40;;;;;;;14.79;100.00;97151.13;5052271;28;20057;-81
2021/08/06 02:16:10;;;;;;;1.27;1.00;;;;;;;14.72;100.00;97142.63;5050997;28;20498;-81
2021/08/06 02:18:37;;;;;;;1.02;0.90;;;;;;;14.74;100.00;97140.34;5051458;28;20039;-83
2021/08/06 02:21:12;;;;;;;9.77;1.33;;;;;;;14.77;100.00;97144.34;5052251;28;20453;-81
2021/08/06 02:23:43;;;;;;;1.38;1.02;;;;;;;14.71;100.00;97135.53;5062739;28;20089;-82
2021/08/06 02:26:11;;;;;;;2.78;1.00;;;;;;;14.86;100.00;97132.09;5054905;28;20033;-81
2021/08/06 02:28:38;;;;;;;3.85;1.70;;;;;;;14.88;100.00;97145.50;5051895;28;20059;-80
2021/08/06 02:31:04;;;;;;;3.63;1.63;;;;;;;14.89;100.00;97153.44;5051718;28;20025;-81
2021/08/06 02:33:30;;;;;;;5.15;1.85;;;;;;;14.96;100.00;97148.16;5051534;28;20049;-79
2021/08/06 02:35:56;;;;;;;3.65;1.40;;;;;;;15.06;100.00;97146.09;5050761;28;20489;-82
2021/08/06 02:38:23;;;;;;;3.50;1.48;;;;;;;14.97;100.00;97141.50;5051884;28;20164;-80
2021/08/06 02:40:49;;;;;;;3.65;1.77;;;;;;;15.10;100.00;97152.53;5051777;28;20025;-79
2021/08/06 02:43:17;;;;;;;2.67;1.40;;;;;;;15.11;100.00;97141.16;5051746;28;20048;-82
2021/08/06 02:45:44;;;;;;;7.07;1.55;;;;;;;15.16;100.00;97145.66;5051532;28;20028;-79
2021/08/06 02:48:10;;;;;;;5.82;1.20;;;;;;;15.28;100.00;97153.91;5051775;28;20039;-80
2021/08/06 02:50:35;;;;;;;2.20;1.90;;;;;;;15.26;100.00;97150.69;5051816;28;20029;-80
2021/08/06 02:53:01;;;;;;;2.50;2.00;;;;;;;15.20;100.00;97149.31;5051794;28;20048;-82
2021/08/06 02:55:26;;;;;;;8.80;2.63;;;;;;;15.09;100.00;97137.16;5051257;28;20025;-81
2021/08/06 02:57:51;;;;;;;7.63;2.28;;;;;;;15.17;100.00;97147.25;5051346;28;20036;-80
2021/08/06 03:00:17;;;;;;;7.10;3.05;;;;;;;15.18;100.00;97154.38;5050459;28;20028;-79
2021/08/06 03:02:42;;;;;;;4.18;2.67;;;;;;;15.19;100.00;97147.72;5050081;28;20440;-79
2021/08/06 03:05:08;;;;;;;6.30;2.30;;;;;;;15.28;100.00;97148.41;5051330;28;20518;-81
2021/08/06 03:07:33;;;;;;;5.75;2.63;;;;;;;15.06;100.00;97152.41;5050440;28;20116;-81
2021/08/06 03:09:59;;;;;;;4.80;3.10;;;;;;;14.99;100.00;97163.19;5049444;28;20420;-81
2021/08/06 03:12:24;;;;;;;8.70;3.35;;;;;;;14.86;100.00;97159.63;5049851;28;20028;-80
2021/08/06 03:14:50;;;;;;;7.00;3.42;;;;;;;14.95;100.00;97149.31;5051150;28;20471;-82
2021/08/06 03:17:15;;;;;;;5.60;3.90;;;;;;;15.01;100.00;97145.19;5051009;28;20067;-80
2021/08/06 03:19:41;;;;;;;7.63;4.15;;;;;;;15.07;100.00;97147.72;5049756;28;20055;-81
2021/08/06 03:22:06;;;;;;;6.30;4.93;;;;;;;15.08;100.00;97136.34;5049952;28;20397;-82
2021/08/06 03:24:32;;;;;;;11.05;6.28;;;;;;;14.90;100.00;97133.03;5050875;28;20086;-82
2021/08/06 03:26:57;;;;;;;7.88;5.15;;;;;;;14.95;100.00;97141.03;5049450;28;20025;-80
2021/08/06 03:29:23;;;;;;;8.40;5.95;;;;;;;14.97;100.00;97147.00;5051074;28;20036;-82
2021/08/06 03:31:48;;;;;;;7.88;6.45;;;;;;;14.86;100.00;97134.84;5049196;28;20052;-81
2021/08/06 03:34:14;;;;;;;9.85;6.20;;;;;;;15.09;100.00;97156.44;5050616;28;20025;-81
2021/08/06 03:36:39;;;;;;;7.88;5.43;;;;;;;14.99;100.00;97155.75;5050425;28;20087;-80
2021/08/06 03:39:05;;;;;;;8.05;4.85;;;;;;;15.07;100.00;97147.72;5050760;28;20021;-80
2021/08/06 03:41:31;;;;;;;9.73;4.75;;;;;;;15.18;100.00;97148.84;5049422;28;20515;-81
2021/08/06 03:43:56;;;;;;;5.25;4.75;;;;;;;15.28;100.00;97156.66;5051207;28;20037;-83
2021/08/06 03:46:22;;;;;;;6.43;4.30;;;;;;;15.28;100.00;97151.97;5058482;28;20401;-83
2021/08/06 03:48:47;;;;;;;5.97;3.65;;;;;;;15.43;100.00;97178.00;5055806;28;20412;-79
2021/08/06 03:51:13;;;;;;;3.72;1.90;;;;;;;15.36;100.00;97161.25;5050728;28;20159;-81
2021/08/06 03:53:39;;;;;;;4.18;3.10;;;;;;;15.43;100.00;97173.31;5050384;28;20037;-81
2021/08/06 03:56:04;;;;;;;5.03;2.80;;;;;;;15.21;100.00;97160.00;5051001;28;20025;-83
2021/08/06 03:58:30;;;;;;;3.83;3.08;;;;;;;15.24;100.00;97164.00;5056923;28;20025;-79
2021/08/06 04:00:56;;;;;;;4.47;2.50;;;;;;;15.10;100.00;97158.06;5067458;28;20037;-82
2021/08/06 04:03:21;;;;;;;5.07;2.72;;;;;;;14.97;100.00;97171.00;5055853;28;20029;-80
2021/08/06 04:05:47;;;;;;;3.78;2.53;;;;;;;15.10;100.00;97174.56;5055604;28;20516;-83
2021/08/06 04:08:12;;;;;;;3.35;3.05;;;;;;;15.22;100.00;97182.84;5055754;28;20032;-81
2021/08/06 04:10:37;;;;;;;2.78;2.17;;;;;;;15.34;100.00;97171.81;5057032;28;20029;-82
2021/08/06 04:13:04;;;;;;;2.08;1.83;;;;;;;15.40;100.00;97179.50;5055558;28;20511;-81
2021/08/06 04:15:29;;;;;;;4.20;2.35;;;;;;;15.23;100.00;97181.69;5056064;28;20037;-78
2021/08/06 04:17:56;;;;;;;4.22;1.77;;;;;;;15.28;100.00;97178.72;5055259;28;20032;-81
2021/08/06 04:20:22;;;;;;;3.17;2.22;;;;;;;15.05;100.00;97183.06;5056168;28;20028;-82
2021/08/06 04:22:47;;;;;;;3.25;1.85;;;;;;;15.08;100.00;97183.16;5055785;28;20040;-81
2021/08/06 04:25:13;;;;;;;2.92;2.22;;;;;;;14.91;100.00;97181.41;5056850;28;20033;-83
2021/08/06 04:27:39;;;;;;;4.70;2.50;;;;;;;14.89;100.00;97167.19;5057027;28;20028;-81
2021/08/06 04:30:07;;;;;;;3.63;2.67;;;;;;;14.96;100.00;97148.16;5056565;28;20116;-80
2021/08/06 04:32:32;;;;;;;4.05;1.85;;;;;;;15.35;100.00;97165.94;5054972;28;20135;-81
2021/08/06 04:34:58;;;;;;;3.17;2.33;;;;;;;15.40;100.00;97173.19;5056949;28;20519;-79
2021/08/06 04:37:24;;;;;;;4.25;2.95;;;;;;;15.36;100.00;97183.28;5056810;28;20075;-82
2021/08/06 04:39:49;;;;;;;3.47;2.72;;;;;;;15.19;100.00;97183.53;5057388;28;20039;-81
2021/08/06 04:42:15;;;;;;;5.88;2.90;;;;;;;15.36;100.00;97183.28;5056842;28;20463;-79
2021/08/06 04:44:40;;;;;;;4.35;2.60;;;;;;;15.52;100.00;97189.75;5055453;28;20388;-78
2021/08/06 04:47:07;;;;;;;2.65;2.35;;;;;;;15.60;100.00;97182.50;5055104;28;20025;-82
2021/08/06 04:49:32;;;;;;;8.98;3.45;;;;;;;15.50;100.00;97179.06;5056396;28;20060;-81
2021/08/06 04:51:58;;;;;;;6.60;3.63;;;;;;;15.37;100.00;97174.69;5055543;28;20060;-82
2021/08/06 04:54:24;;;;;;;4.38;2.90;;;;;;;15.35;100.00;97181.66;5055538;28;20029;-83
2021/08/06 04:56:49;;;;;;;5.85;2.85;;;;;;;15.41;100.00;97178.34;5055403;28;20384;-82
2021/08/06 04:59:15;;;;;;;4.78;3.35;;;;;;;15.54;100.00;97182.72;5057814;28;20052;-80
2021/08/06 05:01:40;;;;;;;6.65;4.28;;;;;;;15.63;100.00;97188.09;5066516;28;20021;-80
2021/08/06 05:04:06;;;;;;;7.95;4.70;;;;;;;15.82;100.00;97188.31;5057074;28;20584;-80
2021/08/06 05:06:32;;;;;;;10.40;6.10;;;;;;;15.73;100.00;97186.84;5056714;28;20024;-78
2021/08/06 05:08:58;;;;;;;8.80;6.32;;;;;;;16.03;100.00;97196.44;5056181;28;20032;-79
2021/08/06 05:11:24;;;;;;;6.75;5.97;;;;;;;15.91;100.00;97202.75;5052348;28;20033;-80
2021/08/06 05:13:49;;;;;;;7.00;5.32;;;;;;;16.12;100.00;97213.66;5052122;28;20033;-79
2021/08/06 05:16:14;;;;;;;8.65;5.80;;;;;;;16.08;100.00;97213.53;5051781;28;20114;-82
2021/08/06 05:18:40;;;;;;;6.53;5.82;;;;;;;16.11;100.00;97219.50;5053316;28;20029;-81
2021/08/06 05:21:05;;;;;;;7.25;5.40;;;;;;;16.14;100.00;97224.31;5053126;28;20107;-80
2021/08/06 05:23:31;;;;;;;8.70;6.32;;;;;;;16.05;100.00;97222.53;5051603;28;20119;-80
2021/08/06 05:25:58;;;;;;;9.18;6.60;;;;;;;16.12;100.00;97227.44;5051560;28;20355;-79
2021/08/06 05:28:24;;;;;;;6.72;5.93;;;;;;;16.11;100.00;97231.34;5053134;28;20067;-80
2021/08/06 05:30:50;;;;;;;7.53;4.93;;;;;;;16.30;100.00;97231.53;5051784;28;20025;-79
2021/08/06 05:33:15;;;;;;;5.70;5.13;;;;;;;16.39;100.00;97239.66;5053231;28;20114;-79
2021/08/06 05:35:41;;;;;;;7.57;4.75;;;;;;;16.35;100.00;97239.56;5053104;28;20033;-80
2021/08/06 05:38:07;;;;;;;8.63;5.05;;;;;;;16.38;100.00;97238.06;5053081;28;20025;-81
2021/08/06 05:40:32;;;;;;;7.35;5.80;;;;;;;16.22;100.00;97243.53;5051212;28;20063;-81
2021/08/06 05:42:58;;;;;;;6.45;5.68;;;;;;;16.01;100.00;97240.91;5051530;28;20363;-80
2021/08/06 05:45:25;;;;;;;9.32;5.32;;;;;;;15.94;100.00;97235.16;5052881;28;20025;-80
2021/08/06 05:47:53;;;;;;;7.40;5.88;;;;;;;16.01;100.00;97227.13;5051501;28;20063;-79
2021/08/06 05:50:21;;;;;;;11.57;5.68;;;;;;;16.01;100.00;97232.63;5051532;28;20079;-81
2021/08/06 05:52:47;;;;;;;10.30;5.00;;;;;;;16.05;100.00;97236.31;5051604;28;20037;-80
2021/08/06 05:55:13;;;;;;;5.82;4.78;;;;;;;16.27;100.00;97248.78;5052437;28;20021;-82
2021/08/06 05:57:40;;;;;;;6.18;4.68;;;;;;;16.29;100.00;97249.22;5052532;28;20029;-79
2021/08/06 06:00:07;;;;;;;8.57;5.22;;;;;;;16.12;100.00;97237.69;5052162;28;20032;-82
2021/08/06 06:02:32;;;;;;;8.30;5.18;;;;;;;16.24;100.00;97235.69;5051019;28;20029;-81
2021/08/06 06:04:58;;;;;;;6.00;4.60;;;;;;;16.38;100.00;97240.84;5051179;28;20040;-80
2021/08/06 06:07:25;;;;;;;7.30;4.15;;;;;;;16.61;100.00;97247.44;5052238;28;20079;-80
2021/08/06 06:09:50;;;;;;;7.30;5.50;;;;;;;16.42;100.00;97236.19;5052326;28;20036;-78
2021/08/06 06:12:16;;;;;;;5.95;4.32;;;;;;;16.56;100.00;97236.66;5051788;28;20124;-80
2021/08/06 06:14:41;;;;;;;12.13;3.97;;;;;;;16.76;99.25;97227.31;5051085;28;20061;-83
2021/08/06 06:17:07;;;;;;;3.92;3.60;;;;;;;16.97;98.03;97238.16;5052182;28;20416;-80
2021/08/06 06:19:32;;;;;;;3.72;3.42;;;;;;;17.31;94.86;97231.94;5052295;28;20451;-80
2021/08/06 06:21:58;;;;;;;8.70;3.65;;;;;;;17.28;94.02;97229.09;5050568;28;20405;-79
2021/08/06 06:24:23;;;;;;;4.63;3.10;;;;;;;17.54;92.81;97243.19;5052072;28;20033;-80
2021/08/06 06:26:49;;;;;;;7.15;3.47;;;;;;;17.65;91.82;97244.25;5050916;28;20447;-79
2021/08/06 06:29:14;;;;;;;4.38;3.97;;;;;;;17.64;92.30;97231.59;5051654;28;20025;-80
2021/08/06 06:31:40;;;;;;;9.00;7.45;;;;;;;17.83;91.65;97223.34;5050432;28;20116;-80
2021/08/06 06:34:06;;;;;;;9.98;6.22;;;;;;;17.95;91.08;97223.22;5051462;28;20136;-79
2021/08/06 06:36:32;;;;;;;9.35;6.43;;;;;;;17.94;91.18;97212.53;5051573;28;20029;-80
2021/08/06 06:38:57;;;;;;;8.07;5.88;;;;;;;17.98;91.10;97225.28;5050383;28;20431;-80
2021/08/06 06:41:23;;;;;;;6.45;5.00;;;;;;;18.23;89.38;97234.13;5050725;28;20493;-80
2021/08/06 06:43:48;;;;;;;7.53;4.47;;;;;;;18.14;88.96;97228.81;5050794;28;20082;-80
2021/08/06 06:46:14;;;;;;;5.72;4.85;;;;;;;18.53;87.71;97224.13;5050402;28;20603;-80
2021/08/06 06:48:39;;;;;;;6.00;4.15;;;;;;;18.17;89.15;97228.06;5049929;28;20032;-81
2021/08/06 06:51:04;;;;;;;6.55;4.65;;;;;;;18.03;90.42;97238.84;5051615;28;20086;-78
2021/08/06 06:53:30;;;;;;;5.70;5.10;;;;;;;18.23;89.16;97236.13;5051410;28;20047;-79
2021/08/06 06:55:56;;;;;;;9.75;5.45;;;;;;;18.66;86.42;97238.63;5049996;28;20021;-79
2021/08/06 06:58:22;;;;;;;7.65;5.18;;;;;;;18.63;85.88;97245.72;5049832;28;20111;-79
2021/08/06 07:00:48;;;;;;;9.25;5.60;;;;;;;19.47;82.18;97244.91;5050188;28;20509;-78
2021/08/06 07:03:14;;;;;;;7.90;5.30;;;;;;;19.59;81.92;97253.03;5050560;28;20040;-80
2021/08/06 07:05:39;;;;;;;7.07;5.32;;;;;;;19.88;80.20;97259.84;5049784;28;20028;-79
2021/08/06 07:08:05;;;;;;;6.32;5.50;;;;;;;18.94;83.94;97266.91;5051155;28;20040;-80
2021/08/06 07:10:30;;;;;;;7.53;6.00;;;;;;;18.94;84.08;97250.28;5051093;28;20452;-81
2021/08/06 07:12:57;;;;;;;7.63;5.45;;;;;;;18.95;84.22;97254.63;5049554;28;20125;-79
2021/08/06 07:15:22;;;;;;;9.00;5.72;;;;;;;18.61;85.70;97248.03;5051364;28;20076;-80
2021/08/06 07:17:48;;;;;;;7.30;5.65;;;;;;;18.82;84.95;97261.53;5050017;28;20020;-79
2021/08/06 07:20:16;;;;;;;8.82;5.60;;;;;;;19.14;83.57;97257.38;5049641;28;20032;-78
2021/08/06 07:22:42;;;;;;;8.65;5.05;;;;;;;20.07;79.20;97266.13;5051097;28;20551;-79
2021/08/06 07:25:10;;;;;;;6.32;5.03;;;;;;;19.96;78.61;97248.47;5050936;28;20029;-82
2021/08/06 07:27:36;;;;;;;6.35;5.68;;;;;;;19.84;79.65;97251.47;5049588;28;20500;-78
2021/08/06 07:30:03;;;;;;;7.93;4.70;;;;;;;19.98;78.42;97243.38;5051179;28;20155;-79
2021/08/06 07:32:29;;;;;;;6.50;5.43;;;;;;;19.83;79.55;97247.06;5051046;28;20045;-80
2021/08/06 07:34:54;;;;;;;8.77;6.35;;;;;;;19.90;79.49;97238.88;5050969;28;20036;-80
2021/08/06 07:37:21;;;;;;;6.15;5.30;;;;;;;20.33;78.05;97254.19;5049182;28;20033;-81
2021/08/06 07:39:46;;;;;;;6.88;5.13;;;;;;;20.94;74.97;97248.22;5050949;28;20033;-79
2021/08/06 07:42:11;;;;;;;7.55;4.90;;;;;;;21.10;74.54;97248.81;5050929;28;20048;-80
2021/08/06 07:44:38;;;;;;;8.27;4.90;;;;;;;21.05;73.98;97251.13;5048964;28;20025;-78
2021/08/06 07:47:04;;;;;;;5.15;4.57;;;;;;;21.12;74.10;97254.00;5051290;28;20025;-80
2021/08/06 07:49:31;;;;;;;5.80;4.75;;;;;;;20.93;73.92;97243.81;5050972;28;20033;-81
2021/08/06 07:51:56;;;;;;;5.30;4.57;;;;;;;21.17;73.16;97246.13;5051356;28;20025;-79
2021/08/06 07:54:22;;;;;;;6.38;5.18;;;;;;;21.67;70.57;97264.09;5049172;28;20040;-81
2021/08/06 07:56:47;;;;;;;5.03;4.53;;;;;;;22.11;69.29;97266.03;5049341;28;20032;-82
2021/08/06 07:59:15;;;;;;;6.88;3.60;;;;;;;21.75;70.02;97249.03;5050725;28;20036;-80
2021/08/06 08:01:40;;;;;;;6.90;3.88;;;;;;;22.39;66.85;97236.38;5049416;28;20552;-81
2021/08/06 08:04:06;;;;;;;5.80;4.32;;;;;;;22.30;66.70;97232.34;5049271;28;20124;-79
2021/08/06 08:06:31;;;;;;;3.85;3.08;;;;;;;23.09;64.53;97245.41;5050481;28;20029;-79
2021/08/06 08:08:57;;;;;;;4.88;3.60;;;;;;;23.46;62.68;97232.75;5049196;28;20112;-77
2021/08/06 08:11:23;;;;;;;8.50;3.58;;;;;;;24.29;58.63;97240.72;5050751;28;20056;-78
2021/08/06 08:13:48;;;;;;;3.92;3.15;;;;;;;24.77;57.63;97249.38;5049779;28;20127;-78
2021/08/06 08:16:14;;;;;;;3.28;2.97;;;;;;;25.61;54.64;97249.38;5051402;28;20108;-78
2021/08/06 08:18:39;;;;;;;3.83;2.95;;;;;;;25.85;53.72;97251.16;5050161;28;20074;-78
2021/08/06 08:21:05;;;;;;;6.63;2.83;;;;;;;27.01;49.76;97246.38;5048838;28;20116;-77
2021/08/06 08:23:30;;;;;;;2.97;2.53;;;;;;;27.21;48.14;97244.53;5050673;28;20393;-77
2021/08/06 08:25:56;;;;;;;4.30;2.28;;;;;;;27.26;47.87;97244.03;5048979;28;20373;-78
2021/08/06 08:28:23;;;;;;;3.92;2.17;;;;;;;26.74;47.95;97239.88;5050257;28;20020;-77
2021/08/06 08:30:48;;;;;;;3.22;2.38;;;;;;;27.60;45.27;97235.53;5049408;28;20112;-76
2021/08/06 08:33:15;;;;;;;4.15;1.98;;;;;;;28.33;44.13;97234.72;5057216;28;20065;-81
2021/08/06 08:35:42;;;;;;;5.32;2.25;;;;;;;29.30;42.58;97244.47;5066376;28;20106;-77
2021/08/06 08:38:08;;;;;;;3.67;1.90;;;;;;;30.05;40.51;97249.16;5049522;28;20021;-77
2021/08/06 08:40:33;;;;;;;5.03;1.73;;;;;;;28.49;42.68;97235.63;5048784;28;20028;-77
2021/08/06 08:42:59;;;;;;;3.50;2.22;;;;;;;27.88;44.19;97240.72;5048979;28;20134;-77
2021/08/06 08:45:25;;;;;;;3.10;2.10;;;;;;;28.53;43.87;97233.56;5052808;28;20021;-77
2021/08/06 08:47:51;;;;;;;2.25;1.98;;;;;;;28.92;43.49;97238.41;5052649;28;20574;-75
2021/08/06 08:50:17;;;;;;;2.95;2.42;;;;;;;28.53;44.57;97224.31;5053838;28;20040;-76
2021/08/06 08:52:42;;;;;;;2.47;2.20;;;;;;;29.79;42.15;97228.41;5054195;28;20033;-78
2021/08/06 08:55:10;;;;;;;5.20;2.17;;;;;;;28.63;44.04;97226.91;5053415;28;20025;-74
2021/08/06 08:57:37;;;;;;;2.05;1.85;;;;;;;30.36;40.71;97229.81;5056876;28;20029;-77
2021/08/06 09:00:08;;;;;;;5.32;2.03;;;;;;;31.09;39.41;97237.50;5054980;28;20025;-75
2021/08/06 09:02:38;;;;;;;2.60;1.90;;;;;;;30.27;40.83;97238.91;5052862;28;20025;-76
2021/08/06 09:05:23;;;;;;;3.90;2.15;;;;;;;29.95;40.91;97227.66;5053997;28;20021;-76
2021/08/06 09:07:49;;;;;;;5.15;2.08;;;;;;;29.41;42.04;97225.31;5049544;28;20025;-76
2021/08/06 09:10:24;;;;;;;5.65;2.10;;;;;;;30.70;39.55;97238.56;5053849;28;20485;-75
2021/08/06 09:13:00;;;;;;;;;;;;;;;28.45;45.06;97234.09;5052971;28;20028;-76
2021/08/06 09:15:42;;;;;;;4.13;2.20;;;;;;;27.76;46.28;97229.25;5054781;28;19923;-76
2021/08/06 09:18:23;;;;;;;3.50;2.15;;;;;;;28.21;45.44;97229.72;5052012;28;20443;-77
2021/08/06 09:20:50;;;;;;;3.65;2.53;;;;;;;29.91;42.30;97232.59;5054262;28;20037;-77
2021/08/06 09:23:44;;;;;;;3.90;1.98;;;;;;;30.25;40.74;97232.94;5052794;28;20013;-77
2021/08/06 09:26:27;;;;;;;3.58;2.05;;;;;;;30.69;39.89;97232.16;5053721;28;20024;-77
2021/08/06 09:29:08;;;;;;;5.20;2.28;;;;;;;30.86;38.95;97234.91;5053558;28;20025;-76
2021/08/06 09:31:37;;;;;;;8.98;2.15;;;;;;;31.31;38.59;97227.94;5053736;28;20044;-79
2021/08/06 09:34:18;;;;;;;4.53;2.08;;;;;;;32.83;36.15;97228.50;5053655;28;20029;-76
2021/08/06 09:37:11;;;;;;;2.28;1.98;;;;;;;32.48;35.84;97234.66;5051919;28;20503;-77
2021/08/06 09:39:42;;;;;;;4.10;2.33;;;;;;;31.98;37.17;97224.22;5051973;28;20401;-77
2021/08/06 09:42:27;;;;;;;2.50;1.65;;;;;;;30.09;40.24;97232.94;5053353;28;20100;-76
2021/08/06 09:45:06;;;;;;;2.75;1.80;;;;;;;28.86;42.62;97219.63;5052996;28;20078;-75
2021/08/06 09:47:34;;;;;;;6.50;2.75;;;;;;;29.22;42.65;97214.84;5051611;28;20052;-77
2021/08/06 09:50:01;;;;;;;4.63;2.17;;;;;;;29.87;40.45;97214.97;5052858;28;20017;-76
2021/08/06 09:52:39;;;;;;;1.80;1.55;;;;;;;31.46;38.26;97224.66;5057064;28;20064;-75
2021/08/06 09:55:07;;;;;;;6.93;2.15;;;;;;;30.39;39.11;97218.47;5053591;28;20476;-75
2021/08/06 09:57:33;;;;;;;2.22;1.77;;;;;;;29.42;41.58;97209.97;5052040;28;20029;-77
2021/08/06 10:00:00;;;;;;;2.50;2.17;;;;;;;30.67;39.50;97214.03;5052011;28;20107;-76
2021/08/06 10:02:31;;;;;;;2.25;1.98;;;;;;;31.84;37.29;97208.50;5051649;28;20033;-75
2021/08/06 10:05:05;;;;;;;2.33;1.63;;;;;;;31.56;37.85;97204.56;5051960;28;20391;-75
2021/08/06 10:07:33;;;;;;;4.40;1.88;;;;;;;32.10;36.12;97209.28;5052751;28;20112;-77
2021/08/06 10:10:01;;;;;;;1.95;1.50;;;;;;;32.97;35.37;97215.88;5042714;28;20428;-74
2021/08/06 10:12:27;;;;;;;4.32;1.98;;;;;;;32.88;35.03;97210.94;5052160;28;20035;-77
2021/08/06 10:14:53;;;;;;;4.80;1.30;;;;;;;32.30;36.11;97201.28;5052212;28;20737;-76
2021/08/06 10:17:19;;;;;;;2.75;1.40;;;;;;;30.44;39.72;97197.38;5051235;28;20032;-76
2021/08/06 10:19:45;;;;;;;3.60;1.30;;;;;;;31.16;38.49;97189.25;5053373;28;20399;-77
2021/08/06 10:22:10;;;;;;;1.98;1.42;;;;;;;31.76;38.11;97190.94;5064755;28;20076;-77
2021/08/06 10:24:38;;;;;;;2.58;1.48;;;;;;;32.41;37.16;97192.41;5052350;28;20476;-76
2021/08/06 10:27:04;;;;;;;5.93;1.25;;;;;;;32.83;35.45;97188.84;5051317;28;20052;-77
2021/08/06 10:29:30;;;;;;;1.60;1.40;;;;;;;32.81;35.22;97197.03;5051063;28;20048;-77
2021/08/06 10:32:10;;;;;;;1.20;0.93;;;;;;;33.40;33.33;97187.47;5050344;28;20041;-77
2021/08/06 10:35:12;;;;;;;1.58;0.90;;;;;;;33.05;33.53;97176.72;5052422;28;20033;-77
2021/08/06 10:38:04;;;;;;;1.65;1.08;;;;;;;33.47;33.71;97180.72;5050964;28;20028;-78
2021/08/06 10:40:37;;;;;;;1.73;1.10;;;;;;;32.89;34.67;97177.72;5052653;28;20029;-77
2021/08/06 10:43:08;;;;;;;1.75;1.17;;;;;;;32.61;35.05;97187.28;5051243;28;20397;-76
2021/08/06 10:45:46;;;;;;;2.45;1.20;;;;;;;31.06;37.79;97170.56;5051755;28;20489;-76
2021/08/06 10:48:42;;;;;;;1.17;1.05;;;;;;;30.37;38.75;97172.13;5053572;28;20033;-76
2021/08/06 10:51:16;;;;;;;2.60;1.13;;;;;;;28.73;41.68;97162.38;5046743;28;20163;-76
2021/08/06 10:53:43;;;;;;;4.30;1.50;;;;;;;27.82;42.61;97163.69;5061590;28;20091;-78
2021/08/06 10:56:17;;;;;;;2.50;1.42;;;;;;;27.64;44.33;97157.59;5052367;28;20092;-79
2021/08/06 10:58:48;;;;;;;1.80;1.15;;;;;;;27.58;44.32;97159.28;5050933;28;20033;-78
2021/08/06 11:01:26;;;;;;;2.22;1.40;;;;;;;27.44;42.84;97145.50;5050344;28;20393;-79
2021/08/06 11:03:56;;;;;;;1.45;1.30;;;;;;;26.49;45.19;97139.97;5050790;28;20319;-79
2021/08/06 11:06:47;;;;;;;1.60;1.10;;;;;;;27.03;44.43;97145.69;5050385;28;20135;-78
2021/08/06 11:09:22;;;;;;;3.67;1.13;;;;;;;26.83;45.08;97147.56;5049345;28;20082;-79
2021/08/06 11:11:55;;;;;;;1.38;0.90;;;;;;;27.10;42.80;97135.13;5051662;28;20029;-78
2021/08/06 11:14:29;;;;;;;1.23;0.85;;;;;;;27.70;42.36;97138.19;5052960;28;20048;-78
2021/08/06 11:17:06;;;;;;;1.52;1.40;;;;;;;28.01;42.53;97136.84;5050214;28;20148;-79
2021/08/06 11:19:47;;;;;;;0.88;0.80;;;;;;;28.48;40.29;97137.53;5053021;28;20028;-78
2021/08/06 11:22:16;;;;;;;0.68;0.50;;;;;;;28.53;39.59;97139.88;5061801;28;20037;-78
2021/08/06 11:24:43;;;;;;;3.05;0.90;;;;;;;28.11;40.07;97127.44;5049700;28;20546;-77
2021/08/06 11:27:10;;;;;;;0.73;0.63;;;;;;;28.06;40.46;97125.94;5054459;28;20040;-79
2021/08/06 11:29:36;;;;;;;0.77;0.70;;;;;;;28.29;40.72;97124.28;5055778;28;20021;-78
2021/08/06 11:32:10;;;;;;;1.13;0.90;;;;;;;28.07;41.75;97121.06;5056045;28;20508;-78
2021/08/06 11:35:00;;;;;;;1.80;0.95;;;;;;;28.17;40.68;97112.44;5056383;28;20112;-78